Inicio METAR Ruta Wind Satelite

Informe Meteorológico

Fecha: 2020/11/30 15:07:11 Local
2020.11.30 20:07 UTC


Estado: VENCIDO
Operación:
Providencia Isla / El Embrujo, Colombia (SKPV) 13-22N 081-21W
Nov 11, 2020 - 06:00 AM EST / 2020.11.11 1100 UTC
Wind: Calm:0
Visibility: greater than 7 mile(s):0
Sky conditions: overcast
Temperature: 75 F (24 C)
Dew Point: 75 F (24 C)
Relative Humidity: 100%
Pressure (altimeter): 29.87 in. Hg (1011 hPa)
ob: SKPV 111100Z 00000KT 9999 FEW017 OVC200 24/24 A2987
cycle: 11